Welcome to Northern Hawkes Bay. New Zealand.
PWS Header
      nz Flag



Hit Counter


W3C Valid W3C Valid logo


    Wairoa

Select any of the Stations below to visit their websites.










Historic Data from Weather Underground
Select the location of interest below. Wairoa is the default. Please have patience, this Data is slow to load in.
Northern Hawkes Bay Historical Data
Daily Summary for August 21, 2017 Units:  Metric    English   Both
« Previous Day
Next Day »
Daily Weekly Monthly Yearly Custom
  High: Low: Average:
Temperature: 14.0 °C 5.2 °C 10 °C
Dew Point: 8.5 °C 5.1 °C 6.4 °C
Humidity: 99% 58% 80%
Wind Speed: 24.5km/h 0.0km/h 12.8km/h
Wind Gust: 36.7km/h - -
Wind- - WSW
Pressure: 1017.8 hPa 996.2 hPa -
Precipitation: 0.0 mm    
Historical Graphs
 
 
Tabular Data for August 21, 2017
Time Temperature Dew Point Pressure Wind Wind Speed Wind Gust Humidity Rainfall Rate (Hourly) solar
00:03 8.6 °C 8.3 °C 996.2 hPa NNW 2.6 km/h 6.1 km/h 98% 0.0 mm 0 W/m2
00:08 8.6 °C 8.3 °C 996.5 hPa NNW 2.6 km/h 6.1 km/h 98% 0.0 mm 0 W/m2
00:13 8.6 °C 8.3 °C 996.5 hPa NNW 2.6 km/h 6.1 km/h 98% 0.0 mm 0 W/m2
00:18 8.4 °C 8.1 °C 996.5 hPa NNW 2.6 km/h 6.1 km/h 98% 0.0 mm 0 W/m2
00:23 8.4 °C 8.1 °C 996.5 hPa NW 2.6 km/h 5.0 km/h 98% 0.0 mm 0 W/m2
00:28 8.4 °C 8.1 °C 996.5 hPa NNW 1.1 km/h 6.1 km/h 98% 0.0 mm 0 W/m2
00:33 8.4 °C 8.1 °C 996.5 hPa Calm   6.1 km/h 98% 0.0 mm 0 W/m2
00:38 8.4 °C 8.1 °C 996.5 hPa NNW 2.6 km/h 5.0 km/h 98% 0.0 mm 0 W/m2
00:43 8.4 °C 8.1 °C 996.8 hPa NW 1.1 km/h 5.0 km/h 98% 0.0 mm 0 W/m2
00:48 8.3 °C 8.0 °C 996.5 hPa West 2.6 km/h 5.0 km/h 98% 0.0 mm 0 W/m2
00:53 8.4 °C 8.1 °C 996.8 hPa NW 6.1 km/h 7.2 km/h 98% 0.0 mm 0 W/m2
00:58 8.4 °C 8.1 °C 996.8 hPa NW 3.5 km/h 7.2 km/h 98% 0.0 mm 0 W/m2
01:03 8.4 °C 8.1 °C 996.8 hPa NNW 2.6 km/h 6.1 km/h 98% 0.0 mm 0 W/m2
01:08 8.3 °C 8.0 °C 996.8 hPa NNW 2.6 km/h 6.1 km/h 98% 0.0 mm 0 W/m2
01:13 8.3 °C 8.0 °C 996.8 hPa NNW 2.6 km/h 6.1 km/h 98% 0.0 mm 0 W/m2
01:18 8.3 °C 8.0 °C 996.8 hPa WNW 1.1 km/h 5.0 km/h 98% 0.0 mm 0 W/m2
01:23 8.4 °C 8.1 °C 996.8 hPa Calm   5.0 km/h 98% 0.0 mm 0 W/m2
01:28 8.3 °C 8.0 °C 996.8 hPa NNW 1.1 km/h 3.5 km/h 98% 0.0 mm 0 W/m2
01:33 8.3 °C 7.8 °C 996.8 hPa NNE 1.1 km/h 2.6 km/h 97% 0.0 mm 0 W/m2
01:38 8.2 °C 7.8 °C 996.8 hPa NNE 2.6 km/h 3.5 km/h 97% 0.0 mm 0 W/m2
01:43 8.1 °C 7.7 °C 996.8 hPa Calm   3.5 km/h 97% 0.0 mm 0 W/m2
01:48 8.0 °C 7.4 °C 997.2 hPa North 1.1 km/h 3.5 km/h 96% 0.0 mm 0 W/m2
01:53 8.0 °C 7.4 °C 997.2 hPa NNW 3.5 km/h 5.0 km/h 96% 0.0 mm 0 W/m2
01:58 8.0 °C 7.4 °C 997.2 hPa NW 5.0 km/h 7.2 km/h 96% 0.0 mm 0 W/m2
02:03 8.0 °C 7.4 °C 997.2 hPa WNW 5.0 km/h 8.7 km/h 96% 0.0 mm 0 W/m2
02:08 8.0 °C 7.4 °C 997.2 hPa NW 5.0 km/h 8.7 km/h 96% 0.0 mm 0 W/m2
02:13 8.0 °C 7.4 °C 997.2 hPa NW 5.0 km/h 8.7 km/h 96% 0.0 mm 0 W/m2
02:18 8.0 °C 7.6 °C 997.2 hPa NW 6.1 km/h 8.7 km/h 97% 0.0 mm 0 W/m2
02:23 7.9 °C 7.4 °C 997.2 hPa NW 6.1 km/h 8.7 km/h 97% 0.0 mm 0 W/m2
02:28 7.9 °C 7.4 °C 997.2 hPa NW 5.0 km/h 8.7 km/h 97% 0.0 mm 0 W/m2
02:33 7.8 °C 7.3 °C 997.5 hPa NW 2.6 km/h 7.2 km/h 97% 0.0 mm 0 W/m2
02:38 7.8 °C 7.3 °C 997.5 hPa NNW 3.5 km/h 7.2 km/h 97% 0.0 mm 0 W/m2
02:43 7.8 °C 7.3 °C 997.5 hPa NNW 6.1 km/h 8.7 km/h 97% 0.0 mm 0 W/m2
02:48 7.8 °C 7.3 °C 997.5 hPa North 3.5 km/h 8.7 km/h 97% 0.0 mm 0 W/m2
02:53 7.8 °C 7.3 °C 997.5 hPa NNW 5.0 km/h 8.7 km/h 97% 0.0 mm 0 W/m2
02:58 7.7 °C 7.3 °C 997.5 hPa NNW 2.6 km/h 7.2 km/h 97% 0.0 mm 0 W/m2
03:03 7.7 °C 7.3 °C 997.5 hPa North 2.6 km/h 7.2 km/h 97% 0.0 mm 0 W/m2
03:08 7.7 °C 7.3 °C 997.9 hPa NNW 5.0 km/h 7.2 km/h 97% 0.0 mm 0 W/m2
03:13 7.6 °C 7.2 °C 997.5 hPa NNW 3.5 km/h 8.7 km/h 97% 0.0 mm 0 W/m2
03:18 7.6 °C 7.2 °C 997.5 hPa NNW 5.0 km/h 8.7 km/h 97% 0.0 mm 0 W/m2
03:23 7.5 °C 7.1 °C 997.5 hPa NNW 3.5 km/h 8.7 km/h 97% 0.0 mm 0 W/m2
03:28 7.5 °C 7.1 °C 997.5 hPa NNW 2.6 km/h 7.2 km/h 97% 0.0 mm 0 W/m2
03:33 7.4 °C 6.9 °C 997.5 hPa North 5.0 km/h 6.1 km/h 97% 0.0 mm 0 W/m2
03:38 7.3 °C 6.8 °C 997.5 hPa North 3.5 km/h 6.1 km/h 97% 0.0 mm 0 W/m2
03:43 7.2 °C 6.8 °C 997.9 hPa North 2.6 km/h 6.1 km/h 97% 0.0 mm 0 W/m2
03:48 7.1 °C 6.7 °C 997.9 hPa North 3.5 km/h 6.1 km/h 97% 0.0 mm 0 W/m2
03:53 7.0 °C 6.6 °C 997.9 hPa NNW 5.0 km/h 7.2 km/h 97% 0.0 mm 0 W/m2
03:58 7.0 °C 6.6 °C 997.9 hPa NNW 3.5 km/h 7.2 km/h 97% 0.0 mm 0 W/m2
04:03 7.0 °C 6.6 °C 997.9 hPa NNW 3.5 km/h 7.2 km/h 97% 0.0 mm 0 W/m2
04:08 6.9 °C 6.6 °C 998.2 hPa Calm   7.2 km/h 98% 0.0 mm 0 W/m2
04:13 6.8 °C 6.5 °C 998.2 hPa Calm   6.1 km/h 98% 0.0 mm 0 W/m2
04:18 6.8 °C 6.5 °C 997.9 hPa NNW 2.6 km/h 3.5 km/h 98% 0.0 mm 0 W/m2
04:23 6.7 °C 6.4 °C 998.2 hPa North 5.0 km/h 6.1 km/h 98% 0.0 mm 0 W/m2
04:28 6.7 °C 6.4 °C 998.2 hPa NNW 3.5 km/h 6.1 km/h 98% 0.0 mm 0 W/m2
04:33 6.6 °C 6.3 °C 998.2 hPa NW 3.5 km/h 6.1 km/h 98% 0.0 mm 0 W/m2
04:38 6.6 °C 6.3 °C 998.5 hPa NW 3.5 km/h 8.7 km/h 98% 0.0 mm 0 W/m2
04:43 6.5 °C 6.2 °C 998.2 hPa NW 2.6 km/h 8.7 km/h 98% 0.0 mm 0 W/m2
04:48 6.4 °C 6.1 °C 998.5 hPa NW 2.6 km/h 5.0 km/h 98% 0.0 mm 0 W/m2
04:53 6.2 °C 5.9 °C 998.5 hPa NW 5.0 km/h 6.1 km/h 98% 0.0 mm 0 W/m2
04:58 6.4 °C 6.1 °C 998.5 hPa NW 6.1 km/h 8.7 km/h 98% 0.0 mm 0 W/m2
05:03 6.4 °C 6.1 °C 998.5 hPa NW 5.0 km/h 8.7 km/h 98% 0.0 mm 0 W/m2
05:08 6.2 °C 5.9 °C 998.9 hPa NW 5.0 km/h 8.7 km/h 98% 0.0 mm 0 W/m2
05:13 6.2 °C 5.9 °C 998.9 hPa NW 3.5 km/h 8.7 km/h 98% 0.0 mm 0 W/m2
05:18 6.2 °C 5.9 °C 998.9 hPa NW 3.5 km/h 7.2 km/h 98% 0.0 mm 0 W/m2
05:23 6.2 °C 5.9 °C 998.9 hPa NW 3.5 km/h 7.2 km/h 98% 0.0 mm 0 W/m2
05:28 6.1 °C 5.8 °C 998.9 hPa NNW 2.6 km/h 6.1 km/h 98% 0.0 mm 0 W/m2
05:33 6.0 °C 5.7 °C 999.2 hPa North 2.6 km/h 6.1 km/h 98% 0.0 mm 0 W/m2
05:38 5.9 °C 5.8 °C 999.2 hPa North 2.6 km/h 7.2 km/h 99% 0.0 mm 0 W/m2
05:43 5.8 °C 5.7 °C 998.9 hPa North 2.6 km/h 7.2 km/h 99% 0.0 mm 0 W/m2
05:48 5.7 °C 5.6 °C 999.2 hPa NNW 2.6 km/h 6.1 km/h 99% 0.0 mm 0 W/m2
05:53 5.6 °C 5.4 °C 999.2 hPa NNE 2.6 km/h 5.0 km/h 99% 0.0 mm 0 W/m2
05:58 5.5 °C 5.3 °C 999.2 hPa NNE 2.6 km/h 5.0 km/h 99% 0.0 mm 0 W/m2
06:03 5.5 °C 5.3 °C 999.5 hPa NNE 1.1 km/h 5.0 km/h 99% 0.0 mm 0 W/m2
06:08 5.5 °C 5.3 °C 999.5 hPa NNE 2.6 km/h 5.0 km/h 99% 0.0 mm 0 W/m2
06:13 5.5 °C 5.3 °C 999.5 hPa NNE 3.5 km/h 5.0 km/h 99% 0.0 mm 0 W/m2
06:18 5.5 °C 5.3 °C 999.5 hPa North 2.6 km/h 6.1 km/h 99% 0.0 mm 0 W/m2
06:23 5.4 °C 5.3 °C 999.5 hPa North 2.6 km/h 6.1 km/h 99% 0.0 mm 0 W/m2
06:28 5.4 °C 5.3 °C 999.5 hPa NNW 2.6 km/h 6.1 km/h 99% 0.0 mm 0 W/m2
06:33 5.4 °C 5.3 °C 999.9 hPa NNW 3.5 km/h 6.1 km/h 99% 0.0 mm 0 W/m2
06:38 5.4 °C 5.3 °C 1000.2 hPa Calm   6.1 km/h 99% 0.0 mm 0 W/m2
06:43 5.2 °C 5.1 °C 999.9 hPa North 2.6 km/h 7.2 km/h 99% 0.0 mm 0 W/m2
06:48 5.2 °C 5.1 °C 1000.2 hPa North 2.6 km/h 7.2 km/h 99% 0.0 mm 0 W/m2
06:53 5.3 °C 5.2 °C 1000.2 hPa NNW 5.0 km/h 8.7 km/h 99% 0.0 mm 1 W/m2
06:58 5.2 °C 5.1 °C 1000.2 hPa NNW 3.5 km/h 8.7 km/h 99% 0.0 mm 3 W/m2
07:03 5.2 °C 5.1 °C 1000.2 hPa NW 6.1 km/h 12.2 km/h 99% 0.0 mm 6 W/m2
07:08 5.2 °C 5.1 °C 1000.6 hPa NW 6.1 km/h 12.2 km/h 99% 0.0 mm 9 W/m2
07:13 5.3 °C 5.2 °C 1000.6 hPa NW 7.2 km/h 12.2 km/h 99% 0.0 mm 21 W/m2
07:18 5.5 °C 5.3 °C 1000.6 hPa NW 8.7 km/h 12.2 km/h 99% 0.0 mm 18 W/m2
07:23 5.4 °C 5.3 °C 1000.6 hPa NW 7.2 km/h 11.1 km/h 99% 0.0 mm 29 W/m2
07:28 5.7 °C 5.6 °C 1000.6 hPa NW 6.1 km/h 11.1 km/h 99% 0.0 mm 79 W/m2
07:33 5.8 °C 5.7 °C 1000.9 hPa NW 5.0 km/h 11.1 km/h 99% 0.0 mm 90 W/m2
07:38 6.0 °C 5.7 °C 1000.9 hPa NNW 5.0 km/h 8.7 km/h 98% 0.0 mm 99 W/m2
07:43 6.2 °C 5.9 °C 1001.2 hPa NNW 5.0 km/h 7.2 km/h 98% 0.0 mm 108 W/m2
07:48 6.5 °C 6.2 °C 1001.2 hPa NNW 6.1 km/h 11.1 km/h 98% 0.0 mm 118 W/m2
07:53 6.6 °C 6.3 °C 1001.2 hPa NNW 7.2 km/h 11.1 km/h 98% 0.0 mm 127 W/m2
07:58 6.7 °C 6.4 °C 1001.6 hPa NNW 7.2 km/h 11.1 km/h 98% 0.3 mm 138 W/m2
08:03 7.0 °C 6.6 °C 1001.6 hPa NNW 3.5 km/h 11.1 km/h 97% 0.3 mm 148 W/m2
08:08 7.2 °C 6.8 °C 1001.6 hPa NW 6.1 km/h 9.7 km/h 97% 0.3 mm 160 W/m2
08:13 7.5 °C 7.1 °C 1001.6 hPa NW 7.2 km/h 12.2 km/h 97% 0.3 mm 170 W/m2
08:18 7.7 °C 7.3 °C 1001.6 hPa NW 7.2 km/h 12.2 km/h 97% 0.3 mm 180 W/m2
08:23 8.1 °C 7.8 °C 1001.6 hPa NW 6.1 km/h 12.2 km/h 98% 0.3 mm 188 W/m2
08:28 8.5 °C 8.1 °C 1001.9 hPa NW 8.7 km/h 11.1 km/h 97% 0.3 mm 202 W/m2
08:30 8.5 °C 8.1 °C 1001.9 hPa NNW 3.5 km/h 11.1 km/h 97% 0.3 mm 207 W/m2
08:35 9.0 °C 8.1 °C 1001.9 hPa NW 3.5 km/h 11.1 km/h 94% 0.3 mm 223 W/m2
08:40 9.6 °C 8.5 °C 1001.9 hPa NNW 7.2 km/h 9.7 km/h 93% 0.3 mm 239 W/m2
08:45 9.9 °C 8.2 °C 1001.9 hPa NW 3.5 km/h 9.7 km/h 89% 0.3 mm 251 W/m2
08:50 10.4 °C 8.2 °C 1002.3 hPa WNW 3.5 km/h 11.1 km/h 86% 0.3 mm 266 W/m2
08:55 10.6 °C 8.2 °C 1002.3 hPa WNW 6.1 km/h 11.1 km/h 85% 0.0 mm 276 W/m2
09:00 10.7 °C 7.9 °C 1002.3 hPa NW 5.0 km/h 8.7 km/h 83% 0.0 mm 282 W/m2
09:05 11.2 °C 7.9 °C 1002.3 hPa WNW 5.0 km/h 15.8 km/h 80% 0.0 mm 295 W/m2
09:10 11.5 °C 7.1 °C 1002.3 hPa WSW 8.7 km/h 15.8 km/h 74% 0.0 mm 304 W/m2
09:15 11.8 °C 7.3 °C 1002.3 hPa WSW 12.2 km/h 15.8 km/h 74% 0.0 mm 308 W/m2
09:20 11.7 °C 6.6 °C 1002.6 hPa SW 12.2 km/h 28.0 km/h 71% 0.0 mm 313 W/m2
09:25 11.7 °C 6.6 °C 1002.6 hPa SW 9.7 km/h 28.0 km/h 71% 0.0 mm 322 W/m2
09:30 11.8 °C 6.5 °C 1002.3 hPa WSW 20.9 km/h 29.4 km/h 70% 0.0 mm 321 W/m2
09:35 11.7 °C 6.2 °C 1002.6 hPa WSW 17.2 km/h 29.4 km/h 69% 0.0 mm 305 W/m2
09:40 11.7 °C 6.2 °C 1002.9 hPa WSW 24.5 km/h 33.1 km/h 69% 0.0 mm 242 W/m2
09:45 11.7 °C 6.0 °C 1002.9 hPa SW 11.1 km/h 33.1 km/h 68% 0.0 mm 88 W/m2
09:50 12.0 °C 6.1 °C 1002.9 hPa WSW 18.3 km/h 33.1 km/h 67% 0.0 mm 74 W/m2
09:55 11.8 °C 5.7 °C 1002.9 hPa WSW 23.3 km/h 33.1 km/h 66% 0.0 mm 70 W/m2
10:00 11.9 °C 5.8 °C 1003.3 hPa West 19.5 km/h 33.1 km/h 66% 0.0 mm 111 W/m2
10:05 11.8 °C 5.9 °C 1003.3 hPa WSW 20.9 km/h 30.6 km/h 67% 0.0 mm 133 W/m2
10:10 12.0 °C 5.6 °C 1003.3 hPa SW 15.8 km/h 30.6 km/h 65% 0.0 mm 184 W/m2
10:15 11.7 °C 5.6 °C 1003.3 hPa SW 18.3 km/h 33.1 km/h 66% 0.0 mm 158 W/m2
10:20 11.5 °C 5.6 °C 1003.3 hPa SW 12.2 km/h 33.1 km/h 67% 0.0 mm 171 W/m2
10:26 11.3 °C 5.6 °C 1003.6 hPa WSW 18.3 km/h 27.0 km/h 68% 0.0 mm 115 W/m2
10:45 12.3 °C 5.7 °C 1003.6 hPa SW 18.3 km/h 30.6 km/h 64% 0.0 mm 320 W/m2
10:50 12.5 °C 5.9 °C 1003.6 hPa WSW 19.5 km/h 27.0 km/h 64% 0.0 mm 328 W/m2
10:55 12.5 °C 5.7 °C 1003.6 hPa SW 13.4 km/h 28.0 km/h 63% 0.0 mm 333 W/m2
11:00 12.4 °C 5.6 °C 1003.9 hPa SW 18.3 km/h 28.0 km/h 63% 0.0 mm 330 W/m2
11:05 12.5 °C 5.9 °C 1003.9 hPa WSW 18.3 km/h 30.6 km/h 64% 0.0 mm 345 W/m2
11:10 12.5 °C 5.9 °C 1003.9 hPa WSW 11.1 km/h 30.6 km/h 64% 0.0 mm 351 W/m2
11:15 12.7 °C 6.1 °C 1003.9 hPa SW 18.3 km/h 29.4 km/h 64% 0.0 mm 365 W/m2
11:20 12.7 °C 5.8 °C 1003.9 hPa SW 14.8 km/h 28.0 km/h 63% 0.0 mm 423 W/m2
11:22 12.7 °C 6.1 °C 1003.9 hPa SW 21.9 km/h 28.0 km/h 64% 0.0 mm 290 W/m2
11:27 12.6 °C 5.5 °C 1003.9 hPa SW 17.2 km/h 28.0 km/h 62% 0.0 mm 130 W/m2
11:32 12.3 °C 5.2 °C 1003.9 hPa SW 21.9 km/h 28.0 km/h 62% 0.0 mm 165 W/m2
11:37 12.4 °C 5.3 °C 1003.9 hPa SW 20.9 km/h 33.1 km/h 62% 0.0 mm 268 W/m2
11:42 12.4 °C 5.3 °C 1003.9 hPa SW 19.5 km/h 33.1 km/h 62% 0.0 mm 191 W/m2
11:47 12.4 °C 5.3 °C 1003.9 hPa SW 13.4 km/h 31.7 km/h 62% 0.0 mm 230 W/m2
11:52 12.6 °C 5.3 °C 1003.9 hPa SW 14.8 km/h 33.1 km/h 61% 0.0 mm 229 W/m2
11:57 12.8 °C 5.4 °C 1003.9 hPa SW 23.3 km/h 33.1 km/h 61% 0.0 mm 366 W/m2
12:02 12.6 °C 5.3 °C 1003.9 hPa SW 19.5 km/h 34.3 km/h 61% 0.0 mm 364 W/m2
12:07 12.8 °C 5.4 °C 1003.9 hPa SW 23.3 km/h 35.6 km/h 61% 0.0 mm 369 W/m2
12:12 12.9 °C 5.6 °C 1003.9 hPa SW 17.2 km/h 35.6 km/h 61% 0.0 mm 375 W/m2
12:17 13.1 °C 5.5 °C 1003.9 hPa SW 19.5 km/h 35.6 km/h 60% 0.0 mm 391 W/m2
12:22 13.5 °C 6.4 °C 1003.9 hPa SW 17.2 km/h 35.6 km/h 62% 0.0 mm 220 W/m2
12:27 13.5 °C 5.7 °C 1003.9 hPa SSW 19.5 km/h 35.6 km/h 59% 0.0 mm 441 W/m2
12:33 14.0 °C 6.4 °C 1003.9 hPa SW 15.8 km/h 35.6 km/h 60% 0.0 mm 422 W/m2
12:38 13.9 °C 5.8 °C 1003.9 hPa SW 23.3 km/h 30.6 km/h 58% 0.0 mm 447 W/m2
12:43 14.0 °C 6.4 °C 1003.9 hPa SW 15.8 km/h 30.6 km/h 60% 0.0 mm 405 W/m2
12:48 13.7 °C 6.1 °C 1003.9 hPa SW 15.8 km/h 31.7 km/h 60% 0.0 mm 383 W/m2
12:53 13.8 °C 6.4 °C 1003.6 hPa SW 15.8 km/h 31.7 km/h 61% 0.0 mm 358 W/m2
12:58 13.8 °C 6.4 °C 1003.9 hPa SW 24.5 km/h 31.7 km/h 61% 0.0 mm 344 W/m2
13:03 13.8 °C 6.7 °C 1003.9 hPa SSW 21.9 km/h 31.7 km/h 62% 0.0 mm 363 W/m2
13:08 13.8 °C 5.9 °C 1003.9 hPa SSW 21.9 km/h 34.3 km/h 59% 0.0 mm 373 W/m2
13:13 13.8 °C 5.7 °C 1003.9 hPa SW 15.8 km/h 34.3 km/h 58% 0.0 mm 369 W/m2
13:18 13.8 °C 5.7 °C 1003.9 hPa SSW 17.2 km/h 36.7 km/h 58% 0.0 mm 348 W/m2
13:23 13.8 °C 5.9 °C 1003.9 hPa SSW 18.3 km/h 36.7 km/h 59% 0.0 mm 312 W/m2
13:28 13.8 °C 6.2 °C 1003.9 hPa SW 24.5 km/h 36.7 km/h 60% 0.0 mm 319 W/m2
13:33 13.6 °C 5.7 °C 1003.9 hPa SW 15.8 km/h 34.3 km/h 59% 0.0 mm 255 W/m2
13:38 13.5 °C 5.7 °C 1003.9 hPa SW 20.9 km/h 34.3 km/h 59% 0.0 mm 275 W/m2
13:43 13.8 °C 6.2 °C 1003.9 hPa SW 18.3 km/h 33.1 km/h 60% 0.0 mm 220 W/m2
13:48 13.8 °C 5.9 °C 1003.9 hPa SSW 24.5 km/h 34.3 km/h 59% 0.0 mm 226 W/m2
13:53 13.3 °C 5.2 °C 1003.9 hPa SSW 15.8 km/h 34.3 km/h 58% 0.0 mm 215 W/m2
13:58 13.5 °C 6.1 °C 1003.9 hPa SSW 17.2 km/h 33.1 km/h 61% 0.0 mm 173 W/m2
14:03 13.4 °C 5.8 °C 1003.9 hPa SSW 14.8 km/h 30.6 km/h 60% 0.0 mm 160 W/m2
14:08 13.2 °C 5.6 °C 1003.9 hPa SSW 13.4 km/h 33.1 km/h 60% 0.0 mm 136 W/m2
14:13 13.4 °C 6.3 °C 1003.9 hPa SSW 23.3 km/h 33.1 km/h 62% 0.0 mm 186 W/m2
14:18 13.8 °C 6.4 °C 1003.9 hPa SW 15.8 km/h 30.6 km/h 61% 0.0 mm 134 W/m2
14:24 13.8 °C 6.4 °C 1004.3 hPa SW 17.2 km/h 28.0 km/h 61% 0.0 mm 144 W/m2
14:29 13.4 °C 6.3 °C 1004.3 hPa SW 11.1 km/h 28.0 km/h 62% 0.0 mm 143 W/m2
14:34 13.0 °C 6.8 °C 1004.3 hPa SW 18.3 km/h 31.7 km/h 66% 0.0 mm 106 W/m2
14:39 12.5 °C 6.8 °C 1004.3 hPa SSW 13.4 km/h 31.7 km/h 68% 0.0 mm 105 W/m2
14:44 12.3 °C 7.0 °C 1004.3 hPa SSW 11.1 km/h 27.0 km/h 70% 0.0 mm 123 W/m2
14:49 12.2 °C 6.9 °C 1004.3 hPa SSW 17.2 km/h 24.5 km/h 70% 0.0 mm 114 W/m2
14:50 12.2 °C 6.9 °C 1004.3 hPa SSW 14.8 km/h 24.5 km/h 70% 0.0 mm 114 W/m2
14:55 12.4 °C 7.1 °C 1004.6 hPa SSW 11.1 km/h 24.5 km/h 70% 0.0 mm 132 W/m2
15:00 12.5 °C 6.9 °C 1004.6 hPa South 20.9 km/h 25.6 km/h 69% 0.0 mm 122 W/m2
15:05 12.3 °C 7.0 °C 1004.6 hPa SSW 8.7 km/h 25.6 km/h 70% 0.0 mm 124 W/m2
15:10 12.3 °C 7.4 °C 1004.6 hPa SSW 15.8 km/h 25.6 km/h 72% 0.0 mm 116 W/m2
15:16 12.1 °C 7.4 °C 1004.6 hPa South 14.8 km/h 25.6 km/h 73% 0.0 mm 106 W/m2
15:21 12.1 °C 7.4 °C 1004.6 hPa SSW 15.8 km/h 25.6 km/h 73% 0.0 mm 114 W/m2
15:26 12.2 °C 7.3 °C 1004.6 hPa SSW 7.2 km/h 25.6 km/h 72% 0.0 mm 96 W/m2
15:31 12.2 °C 6.4 °C 1004.6 hPa SSW 18.3 km/h 24.5 km/h 68% 0.0 mm 93 W/m2
15:36 12.2 °C 6.1 °C 1004.6 hPa South 20.9 km/h 28.0 km/h 66% 0.0 mm 129 W/m2
15:41 12.3 °C 6.6 °C 1005.0 hPa South 15.8 km/h 28.0 km/h 68% 0.0 mm 97 W/m2
15:46 12.1 °C 6.6 °C 1005.0 hPa South 19.5 km/h 27.0 km/h 69% 0.0 mm 70 W/m2
15:51 12.0 °C 6.9 °C 1005.3 hPa SSW 12.2 km/h 24.5 km/h 71% 0.0 mm 86 W/m2
15:56 12.0 °C 7.1 °C 1005.3 hPa SSW 23.3 km/h 30.6 km/h 72% 0.0 mm 74 W/m2
16:01 11.9 °C 7.2 °C 1005.3 hPa SSW 19.5 km/h 30.6 km/h 73% 0.0 mm 97 W/m2
16:06 12.0 °C 6.9 °C 1005.3 hPa SSW 12.2 km/h 30.6 km/h 71% 0.0 mm 83 W/m2
16:11 12.1 °C 6.8 °C 1005.3 hPa SSW 11.1 km/h 23.3 km/h 70% 0.0 mm 57 W/m2
16:16 12.0 °C 6.7 °C 1005.3 hPa SW 9.7 km/h 19.5 km/h 70% 0.0 mm 51 W/m2
16:21 12.0 °C 6.7 °C 1005.3 hPa SW 9.7 km/h 18.3 km/h 70% 0.0 mm 56 W/m2
16:26 12.0 °C 6.1 °C 1005.3 hPa SSW 18.3 km/h 21.9 km/h 67% 0.0 mm 43 W/m2
16:31 11.9 °C 6.6 °C 1005.3 hPa SSW 14.8 km/h 23.3 km/h 70% 0.0 mm 35 W/m2
16:36 11.7 °C 7.0 °C 1005.3 hPa SSW 19.5 km/h 23.3 km/h 73% 0.0 mm 33 W/m2
16:41 11.6 °C 6.7 °C 1005.3 hPa SSW 18.3 km/h 30.6 km/h 72% 0.0 mm 21 W/m2
16:46 11.6 °C 6.5 °C 1005.6 hPa SSW 14.8 km/h 30.6 km/h 71% 0.0 mm 12 W/m2
16:51 11.5 °C 6.8 °C 1005.6 hPa SSW 17.2 km/h 25.6 km/h 73% 0.0 mm 19 W/m2
16:56 11.3 °C 6.7 °C 1005.6 hPa SSW 11.1 km/h 25.6 km/h 73% 0.0 mm 18 W/m2
17:01 11.3 °C 6.4 °C 1005.6 hPa SSW 18.3 km/h 25.6 km/h 72% 0.0 mm 11 W/m2
17:06 11.3 °C 6.4 °C 1006.0 hPa South 12.2 km/h 25.6 km/h 72% 0.0 mm 7 W/m2
17:11 11.3 °C 6.7 °C 1006.0 hPa SSW 13.4 km/h 23.3 km/h 73% 0.0 mm 9 W/m2
17:16 11.4 °C 6.6 °C 1006.3 hPa SW 14.8 km/h 21.9 km/h 72% 0.0 mm 5 W/m2
17:21 11.4 °C 6.3 °C 1006.0 hPa SW 14.8 km/h 28.0 km/h 71% 0.0 mm 4 W/m2
17:26 11.4 °C 5.5 °C 1006.3 hPa SW 11.1 km/h 28.0 km/h 67% 0.0 mm 1 W/m2
17:31 11.4 °C 5.9 °C 1006.3 hPa SSW 14.8 km/h 27.0 km/h 69% 0.0 mm 0 W/m2
17:36 11.3 °C 5.4 °C 1006.3 hPa SSW 13.4 km/h 27.0 km/h 67% 0.0 mm 0 W/m2
17:41 11.3 °C 5.6 °C 1006.3 hPa SSW 14.8 km/h 24.5 km/h 68% 0.0 mm 0 W/m2
17:46 11.2 °C 5.5 °C 1006.7 hPa SW 13.4 km/h 24.5 km/h 68% 0.0 mm 0 W/m2
17:51 11.1 °C 5.4 °C 1006.7 hPa SW 18.3 km/h 27.0 km/h 68% 0.0 mm 0 W/m2
17:56 11.1 °C 6.1 °C 1006.7 hPa SSW 17.2 km/h 29.4 km/h 71% 0.0 mm 0 W/m2
18:01 10.9 °C 6.3 °C 1007.0 hPa SSW 15.8 km/h 29.4 km/h 73% 0.0 mm 0 W/m2
18:06 10.9 °C 6.3 °C 1006.7 hPa SSW 18.3 km/h 29.4 km/h 73% 0.0 mm 0 W/m2
18:11 10.9 °C 6.4 °C 1007.0 hPa SSW 19.5 km/h 29.4 km/h 74% 0.0 mm 0 W/m2
18:16 10.9 °C 6.3 °C 1007.0 hPa South 15.8 km/h 29.4 km/h 73% 0.0 mm 0 W/m2
18:21 10.9 °C 6.4 °C 1007.3 hPa SSW 11.1 km/h 28.0 km/h 74% 0.0 mm 0 W/m2
18:26 10.9 °C 6.3 °C 1007.3 hPa SSW 15.8 km/h 28.0 km/h 73% 0.0 mm 0 W/m2
18:31 10.9 °C 6.3 °C 1007.3 hPa SSW 23.3 km/h 34.3 km/h 73% 0.0 mm 0 W/m2
18:36 10.9 °C 6.3 °C 1007.3 hPa SSW 23.3 km/h 34.3 km/h 73% 0.0 mm 0 W/m2
18:41 10.9 °C 6.3 °C 1007.3 hPa SSW 23.3 km/h 34.3 km/h 73% 0.0 mm 0 W/m2
18:46 10.9 °C 6.3 °C 1007.3 hPa SSW 23.3 km/h 34.3 km/h 73% 0.0 mm 0 W/m2
18:51 10.9 °C 6.3 °C 1007.3 hPa SSW 23.3 km/h 34.3 km/h 73% 0.0 mm 0 W/m2
18:57 10.9 °C 6.3 °C 1007.3 hPa SSW 23.3 km/h 34.3 km/h 73% 0.0 mm 0 W/m2
19:02 10.9 °C 6.3 °C 1007.3 hPa SSW 23.3 km/h 34.3 km/h 73% 0.0 mm 0 W/m2
19:07 10.9 °C 6.3 °C 1007.3 hPa SSW 23.3 km/h 34.3 km/h 73% 0.0 mm 0 W/m2
19:12 10.9 °C 6.3 °C 1007.3 hPa SSW 23.3 km/h 34.3 km/h 73% 0.0 mm 0 W/m2
19:17 10.9 °C 6.3 °C 1007.3 hPa SSW 23.3 km/h 34.3 km/h 73% 0.0 mm 0 W/m2
19:22 10.9 °C 6.3 °C 1007.3 hPa SSW 23.3 km/h 34.3 km/h 73% 0.0 mm 0 W/m2
19:27 10.9 °C 6.3 °C 1007.3 hPa SSW 23.3 km/h 34.3 km/h 73% 0.0 mm 0 W/m2
19:32 10.9 °C 6.3 °C 1007.3 hPa SSW 23.3 km/h 34.3 km/h 73% 0.0 mm 0 W/m2
19:37 10.9 °C 6.3 °C 1007.3 hPa SSW 23.3 km/h 34.3 km/h 73% 0.0 mm 0 W/m2
19:42 10.9 °C 6.3 °C 1007.3 hPa SSW 23.3 km/h 34.3 km/h 73% 0.0 mm 0 W/m2
19:47 10.9 °C 6.3 °C 1007.3 hPa SSW 23.3 km/h 34.3 km/h 73% 0.0 mm 0 W/m2
19:52 10.9 °C 6.3 °C 1007.3 hPa SSW 23.3 km/h 34.3 km/h 73% 0.0 mm 0 W/m2
19:57 10.9 °C 6.3 °C 1007.3 hPa SSW 23.3 km/h 34.3 km/h 73% 0.0 mm 0 W/m2
20:02 10.9 °C 6.3 °C 1007.3 hPa SSW 23.3 km/h 34.3 km/h 73% 0.0 mm 0 W/m2
20:07 10.9 °C 6.3 °C 1007.3 hPa SSW 23.3 km/h 34.3 km/h 73% 0.0 mm 0 W/m2
20:12 10.9 °C 6.3 °C 1007.3 hPa SSW 23.3 km/h 34.3 km/h 73% 0.0 mm 0 W/m2
20:17 10.9 °C 6.3 °C 1007.3 hPa SSW 23.3 km/h 34.3 km/h 73% 0.0 mm 0 W/m2
20:22 10.9 °C 6.3 °C 1007.3 hPa SSW 23.3 km/h 34.3 km/h 73% 0.0 mm 0 W/m2
20:27 10.9 °C 6.3 °C 1007.3 hPa SSW 23.3 km/h 34.3 km/h 73% 0.0 mm 0 W/m2
20:43 10.9 °C 6.3 °C 1007.3 hPa SSW 23.3 km/h 34.3 km/h 73% 0.0 mm 0 W/m2
20:48 10.9 °C 6.3 °C 1007.3 hPa SSW 23.3 km/h 34.3 km/h 73% 0.0 mm 0 W/m2
20:53 10.9 °C 6.3 °C 1007.3 hPa SSW 23.3 km/h 34.3 km/h 73% 0.0 mm 0 W/m2
20:58 10.9 °C 6.3 °C 1007.3 hPa SSW 23.3 km/h 34.3 km/h 73% 0.0 mm 0 W/m2
21:03 10.9 °C 6.3 °C 1007.3 hPa SSW 23.3 km/h 34.3 km/h 73% 0.0 mm 0 W/m2
21:08 10.9 °C 6.3 °C 1007.3 hPa SSW 23.3 km/h 34.3 km/h 73% 0.0 mm 0 W/m2
21:13 10.9 °C 6.3 °C 1007.3 hPa SSW 23.3 km/h 34.3 km/h 73% 0.0 mm 0 W/m2
21:18 10.9 °C 6.3 °C 1007.3 hPa SSW 23.3 km/h 34.3 km/h 73% 0.0 mm 0 W/m2
21:23 10.9 °C 6.3 °C 1007.3 hPa SSW 23.3 km/h 34.3 km/h 73% 0.0 mm 0 W/m2
21:28 10.9 °C 6.3 °C 1007.3 hPa SSW 23.3 km/h 34.3 km/h 73% 0.0 mm 0 W/m2
21:33 10.9 °C 6.3 °C 1007.3 hPa SSW 23.3 km/h 34.3 km/h 73% 0.0 mm 0 W/m2
21:38 10.9 °C 6.3 °C 1007.3 hPa SSW 23.3 km/h 34.3 km/h 73% 0.0 mm 0 W/m2
21:43 10.9 °C 6.3 °C 1007.3 hPa SSW 23.3 km/h 34.3 km/h 73% 0.0 mm 0 W/m2
21:48 10.9 °C 6.3 °C 1007.3 hPa SSW 23.3 km/h 34.3 km/h 73% 0.0 mm 0 W/m2
21:53 10.9 °C 6.3 °C 1007.3 hPa SSW 23.3 km/h 34.3 km/h 73% 0.0 mm 0 W/m2
21:58 10.9 °C 6.3 °C 1007.3 hPa SSW 23.3 km/h 34.3 km/h 73% 0.0 mm 0 W/m2
22:15 10.9 °C 6.3 °C 1007.3 hPa SSW 23.3 km/h 34.3 km/h 73% 0.0 mm 0 W/m2
22:20 10.9 °C 6.3 °C 1007.3 hPa SSW 23.3 km/h 34.3 km/h 73% 0.0 mm 0 W/m2
22:25 10.9 °C 6.3 °C 1007.3 hPa SSW 23.3 km/h 34.3 km/h 73% 0.0 mm 0 W/m2
22:30 10.9 °C 6.3 °C 1007.3 hPa SSW 23.3 km/h 34.3 km/h 73% 0.0 mm 0 W/m2
22:35 10.9 °C 6.3 °C 1007.3 hPa SSW 23.3 km/h 34.3 km/h 73% 0.0 mm 0 W/m2
22:40 10.9 °C 6.3 °C 1007.3 hPa SSW 23.3 km/h 34.3 km/h 73% 0.0 mm 0 W/m2
22:45 10.9 °C 6.3 °C 1007.3 hPa SSW 23.3 km/h 34.3 km/h 73% 0.0 mm 0 W/m2
22:50 10.9 °C 6.3 °C 1007.3 hPa SSW 23.3 km/h 34.3 km/h 73% 0.0 mm 0 W/m2
22:55 10.9 °C 6.3 °C 1007.3 hPa SSW 23.3 km/h 34.3 km/h 73% 0.0 mm 0 W/m2
23:00 10.9 °C 6.3 °C 1007.3 hPa SSW 23.3 km/h 34.3 km/h 73% 0.0 mm 0 W/m2
23:05 10.9 °C 6.3 °C 1007.3 hPa SSW 23.3 km/h 34.3 km/h 73% 0.0 mm 0 W/m2
23:15 10.9 °C 6.4 °C 1017.8 hPa SW 17.2 km/h 28.0 km/h 74% 0.0 mm 0 W/m2
23:20 9.7 °C 5.3 °C 1011.1 hPa SSW 18.3 km/h 29.4 km/h 74% 0.0 mm 0 W/m2
23:25 9.6 °C 5.2 °C 1011.4 hPa SW 11.1 km/h 29.4 km/h 74% 0.0 mm 0 W/m2
23:30 9.6 °C 5.2 °C 1011.4 hPa SW 14.8 km/h 24.5 km/h 74% 0.0 mm 0 W/m2
23:35 9.5 °C 5.3 °C 1011.4 hPa SW 14.8 km/h 24.5 km/h 75% 0.0 mm 0 W/m2
23:40 9.4 °C 5.4 °C 1011.4 hPa SW 12.2 km/h 25.6 km/h 76% 0.0 mm 0 W/m2
23:45 9.4 °C 5.4 °C 1011.4 hPa SW 19.5 km/h 33.1 km/h 76% 0.0 mm 0 W/m2
23:50 9.4 °C 5.4 °C 1011.7 hPa WSW 15.8 km/h 33.1 km/h 76% 0.0 mm 0 W/m2
23:55 9.4 °C 5.4 °C 1011.7 hPa WSW 18.3 km/h 29.4 km/h 76% 0.0 mm 0 W/m2
Northern Hawkes Bay. New Zealand Historic Data
Compliments of Weather Underground - 2 mb